sensor_id;sensor_type;location;lat;lon;timestamp;P1;durP1;ratioP1;P2;durP2;ratioP2
48613;SDS011;34408;51.426;5.444;2022-11-20T00:00:42;9.27;;;6.20;;
48613;SDS011;34408;51.426;5.444;2022-11-20T00:03:10;11.65;;;6.85;;
48613;SDS011;34408;51.426;5.444;2022-11-20T00:05:39;10.10;;;6.40;;
48613;SDS011;34408;51.426;5.444;2022-11-20T00:08:07;12.05;;;6.88;;
48613;SDS011;34408;51.426;5.444;2022-11-20T00:10:35;9.88;;;6.22;;
48613;SDS011;34408;51.426;5.444;2022-11-20T00:13:03;9.50;;;5.97;;
48613;SDS011;34408;51.426;5.444;2022-11-20T00:15:31;10.07;;;5.95;;
48613;SDS011;34408;51.426;5.444;2022-11-20T00:17:58;11.77;;;6.63;;
48613;SDS011;34408;51.426;5.444;2022-11-20T00:20:26;10.15;;;6.45;;
48613;SDS011;34408;51.426;5.444;2022-11-20T00:22:56;9.85;;;6.45;;
48613;SDS011;34408;51.426;5.444;2022-11-20T00:25:23;10.15;;;6.43;;
48613;SDS011;34408;51.426;5.444;2022-11-20T00:27:51;10.10;;;6.63;;
48613;SDS011;34408;51.426;5.444;2022-11-20T00:30:19;11.57;;;7.28;;
48613;SDS011;34408;51.426;5.444;2022-11-20T00:32:46;10.02;;;6.25;;
48613;SDS011;34408;51.426;5.444;2022-11-20T00:35:14;10.35;;;6.10;;
48613;SDS011;34408;51.426;5.444;2022-11-20T00:37:42;10.70;;;6.75;;
48613;SDS011;34408;51.426;5.444;2022-11-20T00:40:12;9.57;;;6.55;;
48613;SDS011;34408;51.426;5.444;2022-11-20T00:42:40;9.55;;;6.13;;
48613;SDS011;34408;51.426;5.444;2022-11-20T00:45:08;9.88;;;6.43;;
48613;SDS011;34408;51.426;5.444;2022-11-20T00:47:35;9.48;;;6.28;;
48613;SDS011;34408;51.426;5.444;2022-11-20T00:50:03;10.65;;;6.57;;
48613;SDS011;34408;51.426;5.444;2022-11-20T00:52:32;10.50;;;7.00;;
48613;SDS011;34408;51.426;5.444;2022-11-20T00:54:59;10.65;;;6.78;;
48613;SDS011;34408;51.426;5.444;2022-11-20T00:57:28;10.55;;;6.55;;
48613;SDS011;34408;51.426;5.444;2022-11-20T00:59:56;9.23;;;6.25;;
48613;SDS011;34408;51.426;5.444;2022-11-20T01:02:24;10.07;;;6.53;;
48613;SDS011;34408;51.426;5.444;2022-11-20T01:04:51;11.18;;;6.82;;
48613;SDS011;34408;51.426;5.444;2022-11-20T01:07:19;9.23;;;6.90;;
48613;SDS011;34408;51.426;5.444;2022-11-20T01:09:47;10.18;;;7.63;;
48613;SDS011;34408;51.426;5.444;2022-11-20T01:12:14;13.27;;;6.80;;
48613;SDS011;34408;51.426;5.444;2022-11-20T01:14:43;16.33;;;7.85;;
48613;SDS011;34408;51.426;5.444;2022-11-20T01:17:11;10.55;;;7.32;;
48613;SDS011;34408;51.426;5.444;2022-11-20T01:19:39;12.18;;;7.97;;
48613;SDS011;34408;51.426;5.444;2022-11-20T01:22:07;11.95;;;7.28;;
48613;SDS011;34408;51.426;5.444;2022-11-20T01:24:34;11.75;;;7.50;;
48613;SDS011;34408;51.426;5.444;2022-11-20T01:27:02;11.65;;;7.45;;
48613;SDS011;34408;51.426;5.444;2022-11-20T01:29:30;11.75;;;7.45;;
48613;SDS011;34408;51.426;5.444;2022-11-20T01:31:59;11.55;;;7.43;;
48613;SDS011;34408;51.426;5.444;2022-11-20T01:34:26;12.73;;;7.63;;
48613;SDS011;34408;51.426;5.444;2022-11-20T01:36:54;9.63;;;6.60;;
48613;SDS011;34408;51.426;5.444;2022-11-20T01:39:23;10.68;;;6.90;;
48613;SDS011;34408;51.426;5.444;2022-11-20T01:41:52;10.40;;;6.75;;
48613;SDS011;34408;51.426;5.444;2022-11-20T01:44:42;10.90;;;7.38;;
48613;SDS011;34408;51.426;5.444;2022-11-20T01:47:17;10.50;;;6.93;;
48613;SDS011;34408;51.426;5.444;2022-11-20T01:49:50;10.25;;;6.80;;
48613;SDS011;34408;51.426;5.444;2022-11-20T01:52:21;10.73;;;7.95;;
48613;SDS011;34408;51.426;5.444;2022-11-20T01:54:52;10.68;;;6.70;;
48613;SDS011;34408;51.426;5.444;2022-11-20T01:57:23;11.90;;;7.63;;
48613;SDS011;34408;51.426;5.444;2022-11-20T01:59:57;18.75;;;7.35;;
48613;SDS011;34408;51.426;5.444;2022-11-20T02:02:30;12.43;;;7.18;;
48613;SDS011;34408;51.426;5.444;2022-11-20T02:04:59;11.25;;;7.63;;
48613;SDS011;34408;51.426;5.444;2022-11-20T02:07:32;10.30;;;7.30;;
48613;SDS011;34408;51.426;5.444;2022-11-20T02:10:00;11.88;;;7.10;;
48613;SDS011;34408;51.426;5.444;2022-11-20T02:12:28;10.63;;;7.15;;
48613;SDS011;34408;51.426;5.444;2022-11-20T02:15:13;11.05;;;6.75;;
48613;SDS011;34408;51.426;5.444;2022-11-20T02:17:42;12.45;;;7.93;;
48613;SDS011;34408;51.426;5.444;2022-11-20T02:20:10;11.82;;;7.10;;
48613;SDS011;34408;51.426;5.444;2022-11-20T02:22:40;11.00;;;7.10;;
48613;SDS011;34408;51.426;5.444;2022-11-20T02:25:17;11.85;;;7.43;;
48613;SDS011;34408;51.426;5.444;2022-11-20T02:27:47;12.38;;;7.50;;
48613;SDS011;34408;51.426;5.444;2022-11-20T02:30:15;11.45;;;7.18;;
48613;SDS011;34408;51.426;5.444;2022-11-20T02:32:43;10.55;;;6.70;;
48613;SDS011;34408;51.426;5.444;2022-11-20T02:38:07;12.43;;;7.18;;
48613;SDS011;34408;51.426;5.444;2022-11-20T02:40:36;9.45;;;6.47;;
48613;SDS011;34408;51.426;5.444;2022-11-20T02:43:04;10.77;;;6.90;;
48613;SDS011;34408;51.426;5.444;2022-11-20T02:45:32;13.35;;;7.53;;
48613;SDS011;34408;51.426;5.444;2022-11-20T02:48:00;12.10;;;7.30;;
48613;SDS011;34408;51.426;5.444;2022-11-20T02:50:27;10.48;;;7.53;;
48613;SDS011;34408;51.426;5.444;2022-11-20T02:52:55;12.10;;;7.90;;
48613;SDS011;34408;51.426;5.444;2022-11-20T02:55:23;11.88;;;6.70;;
48613;SDS011;34408;51.426;5.444;2022-11-20T02:57:52;11.05;;;7.50;;
48613;SDS011;34408;51.426;5.444;2022-11-20T03:00:19;12.85;;;7.93;;
48613;SDS011;34408;51.426;5.444;2022-11-20T03:02:47;12.85;;;6.97;;
48613;SDS011;34408;51.426;5.444;2022-11-20T03:05:15;10.00;;;7.25;;
48613;SDS011;34408;51.426;5.444;2022-11-20T03:07:43;9.75;;;6.95;;
48613;SDS011;34408;51.426;5.444;2022-11-20T03:10:11;11.82;;;7.80;;
48613;SDS011;34408;51.426;5.444;2022-11-20T03:12:39;10.77;;;7.20;;
48613;SDS011;34408;51.426;5.444;2022-11-20T03:15:08;10.88;;;7.40;;
48613;SDS011;34408;51.426;5.444;2022-11-20T03:17:37;11.82;;;7.38;;
48613;SDS011;34408;51.426;5.444;2022-11-20T03:20:05;10.40;;;7.20;;
48613;SDS011;34408;51.426;5.444;2022-11-20T03:22:35;11.82;;;7.72;;
48613;SDS011;34408;51.426;5.444;2022-11-20T03:25:03;12.98;;;7.18;;
48613;SDS011;34408;51.426;5.444;2022-11-20T03:27:32;10.93;;;7.05;;
48613;SDS011;34408;51.426;5.444;2022-11-20T03:30:01;10.00;;;6.60;;
48613;SDS011;34408;51.426;5.444;2022-11-20T03:32:30;11.50;;;7.68;;
48613;SDS011;34408;51.426;5.444;2022-11-20T03:34:58;9.45;;;7.15;;
48613;SDS011;34408;51.426;5.444;2022-11-20T03:37:26;13.07;;;8.18;;
48613;SDS011;34408;51.426;5.444;2022-11-20T03:39:53;11.25;;;7.68;;
48613;SDS011;34408;51.426;5.444;2022-11-20T03:42:21;14.43;;;8.32;;
48613;SDS011;34408;51.426;5.444;2022-11-20T03:45:06;11.57;;;7.70;;
48613;SDS011;34408;51.426;5.444;2022-11-20T03:47:36;11.43;;;7.63;;
48613;SDS011;34408;51.426;5.444;2022-11-20T03:50:04;13.25;;;7.45;;
48613;SDS011;34408;51.426;5.444;2022-11-20T03:52:33;10.90;;;7.45;;
48613;SDS011;34408;51.426;5.444;2022-11-20T03:55:00;10.35;;;7.53;;
48613;SDS011;34408;51.426;5.444;2022-11-20T03:57:28;10.60;;;7.32;;
48613;SDS011;34408;51.426;5.444;2022-11-20T03:59:56;10.38;;;7.07;;
48613;SDS011;34408;51.426;5.444;2022-11-20T04:02:23;13.35;;;7.75;;
48613;SDS011;34408;51.426;5.444;2022-11-20T04:04:52;11.15;;;7.53;;
48613;SDS011;34408;51.426;5.444;2022-11-20T04:07:20;11.05;;;7.53;;
48613;SDS011;34408;51.426;5.444;2022-11-20T04:09:48;14.18;;;8.43;;
48613;SDS011;34408;51.426;5.444;2022-11-20T04:12:16;10.10;;;7.00;;
48613;SDS011;34408;51.426;5.444;2022-11-20T04:14:43;12.55;;;7.68;;
48613;SDS011;34408;51.426;5.444;2022-11-20T04:17:11;13.80;;;7.45;;
48613;SDS011;34408;51.426;5.444;2022-11-20T04:19:39;13.80;;;7.70;;
48613;SDS011;34408;51.426;5.444;2022-11-20T04:22:08;11.07;;;8.10;;
48613;SDS011;34408;51.426;5.444;2022-11-20T04:24:37;10.32;;;7.43;;
48613;SDS011;34408;51.426;5.444;2022-11-20T04:27:05;15.80;;;8.27;;
48613;SDS011;34408;51.426;5.444;2022-11-20T04:29:33;13.02;;;7.93;;
48613;SDS011;34408;51.426;5.444;2022-11-20T04:32:00;11.20;;;7.70;;
48613;SDS011;34408;51.426;5.444;2022-11-20T04:34:28;10.07;;;7.28;;
48613;SDS011;34408;51.426;5.444;2022-11-20T04:36:56;11.18;;;8.00;;
48613;SDS011;34408;51.426;5.444;2022-11-20T04:39:25;12.98;;;7.53;;
48613;SDS011;34408;51.426;5.444;2022-11-20T04:41:53;12.60;;;7.82;;
48613;SDS011;34408;51.426;5.444;2022-11-20T04:44:40;10.57;;;7.75;;
48613;SDS011;34408;51.426;5.444;2022-11-20T04:47:08;11.45;;;7.50;;
48613;SDS011;34408;51.426;5.444;2022-11-20T04:49:35;13.93;;;8.05;;
48613;SDS011;34408;51.426;5.444;2022-11-20T04:52:03;12.52;;;8.35;;
48613;SDS011;34408;51.426;5.444;2022-11-20T04:54:32;11.07;;;7.78;;
48613;SDS011;34408;51.426;5.444;2022-11-20T04:57:00;12.27;;;8.50;;
48613;SDS011;34408;51.426;5.444;2022-11-20T04:59:28;10.40;;;7.40;;
48613;SDS011;34408;51.426;5.444;2022-11-20T05:01:55;15.10;;;7.45;;
48613;SDS011;34408;51.426;5.444;2022-11-20T05:04:23;13.38;;;7.68;;
48613;SDS011;34408;51.426;5.444;2022-11-20T05:06:51;10.68;;;7.38;;
48613;SDS011;34408;51.426;5.444;2022-11-20T05:09:19;11.95;;;7.75;;
48613;SDS011;34408;51.426;5.444;2022-11-20T05:11:48;11.25;;;7.53;;
48613;SDS011;34408;51.426;5.444;2022-11-20T05:14:17;9.93;;;7.00;;
48613;SDS011;34408;51.426;5.444;2022-11-20T05:16:44;11.25;;;6.97;;
48613;SDS011;34408;51.426;5.444;2022-11-20T05:19:12;12.40;;;6.95;;
48613;SDS011;34408;51.426;5.444;2022-11-20T05:21:40;11.70;;;7.65;;
48613;SDS011;34408;51.426;5.444;2022-11-20T05:24:08;13.60;;;7.38;;
48613;SDS011;34408;51.426;5.444;2022-11-20T05:26:36;9.57;;;7.38;;
48613;SDS011;34408;51.426;5.444;2022-11-20T05:29:05;12.20;;;8.02;;
48613;SDS011;34408;51.426;5.444;2022-11-20T05:31:32;10.75;;;7.40;;
48613;SDS011;34408;51.426;5.444;2022-11-20T05:34:00;12.90;;;7.43;;
48613;SDS011;34408;51.426;5.444;2022-11-20T05:36:28;10.40;;;7.07;;
48613;SDS011;34408;51.426;5.444;2022-11-20T05:38:57;12.27;;;7.95;;
48613;SDS011;34408;51.426;5.444;2022-11-20T05:41:27;10.57;;;6.72;;
48613;SDS011;34408;51.426;5.444;2022-11-20T05:43:55;10.98;;;6.50;;
48613;SDS011;34408;51.426;5.444;2022-11-20T05:46:25;13.57;;;7.60;;
48613;SDS011;34408;51.426;5.444;2022-11-20T05:48:55;12.60;;;7.70;;
48613;SDS011;34408;51.426;5.444;2022-11-20T05:51:24;11.82;;;7.65;;
48613;SDS011;34408;51.426;5.444;2022-11-20T05:53:52;12.30;;;7.72;;
48613;SDS011;34408;51.426;5.444;2022-11-20T05:56:20;10.35;;;7.28;;
48613;SDS011;34408;51.426;5.444;2022-11-20T05:58:49;9.52;;;6.80;;
48613;SDS011;34408;51.426;5.444;2022-11-20T06:01:18;12.20;;;8.23;;
48613;SDS011;34408;51.426;5.444;2022-11-20T06:03:48;11.55;;;6.90;;
48613;SDS011;34408;51.426;5.444;2022-11-20T06:06:17;11.18;;;6.97;;
48613;SDS011;34408;51.426;5.444;2022-11-20T06:08:46;11.90;;;7.63;;
48613;SDS011;34408;51.426;5.444;2022-11-20T06:11:14;10.70;;;7.15;;
48613;SDS011;34408;51.426;5.444;2022-11-20T06:13:43;10.30;;;7.00;;
48613;SDS011;34408;51.426;5.444;2022-11-20T06:16:12;12.55;;;7.45;;
48613;SDS011;34408;51.426;5.444;2022-11-20T06:18:41;11.10;;;6.65;;
48613;SDS011;34408;51.426;5.444;2022-11-20T06:21:11;9.60;;;7.00;;
48613;SDS011;34408;51.426;5.444;2022-11-20T06:23:41;9.52;;;6.65;;
48613;SDS011;34408;51.426;5.444;2022-11-20T06:26:11;14.02;;;7.65;;
48613;SDS011;34408;51.426;5.444;2022-11-20T06:28:40;12.05;;;7.57;;
48613;SDS011;34408;51.426;5.444;2022-11-20T06:31:10;9.85;;;7.00;;
48613;SDS011;34408;51.426;5.444;2022-11-20T06:33:39;10.35;;;6.88;;
48613;SDS011;34408;51.426;5.444;2022-11-20T06:36:07;10.05;;;6.78;;
48613;SDS011;34408;51.426;5.444;2022-11-20T06:38:37;8.68;;;6.35;;
48613;SDS011;34408;51.426;5.444;2022-11-20T06:41:06;10.10;;;6.45;;
48613;SDS011;34408;51.426;5.444;2022-11-20T06:43:34;10.18;;;6.65;;
48613;SDS011;34408;51.426;5.444;2022-11-20T06:46:02;9.90;;;6.72;;
48613;SDS011;34408;51.426;5.444;2022-11-20T06:48:30;11.85;;;7.32;;
48613;SDS011;34408;51.426;5.444;2022-11-20T06:50:58;9.65;;;6.50;;
48613;SDS011;34408;51.426;5.444;2022-11-20T06:53:26;9.45;;;6.25;;
48613;SDS011;34408;51.426;5.444;2022-11-20T06:55:55;10.38;;;7.25;;
48613;SDS011;34408;51.426;5.444;2022-11-20T06:58:25;9.77;;;6.50;;
48613;SDS011;34408;51.426;5.444;2022-11-20T07:00:54;10.30;;;6.70;;
48613;SDS011;34408;51.426;5.444;2022-11-20T07:03:24;10.73;;;6.97;;
48613;SDS011;34408;51.426;5.444;2022-11-20T07:05:54;11.00;;;7.25;;
48613;SDS011;34408;51.426;5.444;2022-11-20T07:08:22;13.77;;;7.65;;
48613;SDS011;34408;51.426;5.444;2022-11-20T07:10:50;10.82;;;6.68;;
48613;SDS011;34408;51.426;5.444;2022-11-20T07:13:19;9.45;;;6.63;;
48613;SDS011;34408;51.426;5.444;2022-11-20T07:15:47;9.98;;;7.15;;
48613;SDS011;34408;51.426;5.444;2022-11-20T07:18:15;12.00;;;7.70;;
48613;SDS011;34408;51.426;5.444;2022-11-20T07:20:42;11.73;;;7.53;;
48613;SDS011;34408;51.426;5.444;2022-11-20T07:23:10;8.85;;;6.72;;
48613;SDS011;34408;51.426;5.444;2022-11-20T07:25:38;10.45;;;6.72;;
48613;SDS011;34408;51.426;5.444;2022-11-20T07:28:06;10.65;;;7.18;;
48613;SDS011;34408;51.426;5.444;2022-11-20T07:30:35;9.63;;;6.85;;
48613;SDS011;34408;51.426;5.444;2022-11-20T07:33:03;10.80;;;6.90;;
48613;SDS011;34408;51.426;5.444;2022-11-20T07:35:31;11.32;;;7.55;;
48613;SDS011;34408;51.426;5.444;2022-11-20T07:37:59;9.27;;;6.65;;
48613;SDS011;34408;51.426;5.444;2022-11-20T07:40:27;9.80;;;6.70;;
48613;SDS011;34408;51.426;5.444;2022-11-20T07:42:55;10.57;;;7.15;;
48613;SDS011;34408;51.426;5.444;2022-11-20T07:45:23;11.15;;;7.15;;
48613;SDS011;34408;51.426;5.444;2022-11-20T07:47:53;10.05;;;7.15;;
48613;SDS011;34408;51.426;5.444;2022-11-20T07:50:20;12.52;;;7.05;;
48613;SDS011;34408;51.426;5.444;2022-11-20T07:52:48;10.65;;;6.50;;
48613;SDS011;34408;51.426;5.444;2022-11-20T07:55:16;9.57;;;6.57;;
48613;SDS011;34408;51.426;5.444;2022-11-20T07:57:44;12.98;;;7.57;;
48613;SDS011;34408;51.426;5.444;2022-11-20T08:00:12;10.23;;;7.20;;
48613;SDS011;34408;51.426;5.444;2022-11-20T08:02:41;12.30;;;6.35;;
48613;SDS011;34408;51.426;5.444;2022-11-20T08:05:10;10.55;;;6.80;;
48613;SDS011;34408;51.426;5.444;2022-11-20T08:07:38;10.57;;;7.25;;
48613;SDS011;34408;51.426;5.444;2022-11-20T08:10:07;11.40;;;7.25;;
48613;SDS011;34408;51.426;5.444;2022-11-20T08:12:42;11.35;;;7.13;;
48613;SDS011;34408;51.426;5.444;2022-11-20T08:15:28;10.80;;;7.50;;
48613;SDS011;34408;51.426;5.444;2022-11-20T08:18:04;10.65;;;7.10;;
48613;SDS011;34408;51.426;5.444;2022-11-20T08:20:54;9.82;;;7.65;;
48613;SDS011;34408;51.426;5.444;2022-11-20T08:23:22;10.82;;;7.05;;
48613;SDS011;34408;51.426;5.444;2022-11-20T08:25:50;11.27;;;6.93;;
48613;SDS011;34408;51.426;5.444;2022-11-20T08:28:18;8.57;;;6.38;;
48613;SDS011;34408;51.426;5.444;2022-11-20T08:30:47;11.15;;;7.72;;
48613;SDS011;34408;51.426;5.444;2022-11-20T08:33:16;10.75;;;7.03;;
48613;SDS011;34408;51.426;5.444;2022-11-20T08:35:44;11.05;;;7.28;;
48613;SDS011;34408;51.426;5.444;2022-11-20T08:38:14;9.48;;;6.45;;
48613;SDS011;34408;51.426;5.444;2022-11-20T08:40:42;8.85;;;6.38;;
48613;SDS011;34408;51.426;5.444;2022-11-20T08:43:30;10.70;;;7.03;;
48613;SDS011;34408;51.426;5.444;2022-11-20T08:45:58;11.65;;;7.18;;
48613;SDS011;34408;51.426;5.444;2022-11-20T08:48:26;13.93;;;7.82;;
48613;SDS011;34408;51.426;5.444;2022-11-20T08:50:53;9.70;;;6.72;;
48613;SDS011;34408;51.426;5.444;2022-11-20T08:53:26;12.05;;;6.95;;
48613;SDS011;34408;51.426;5.444;2022-11-20T08:55:54;10.15;;;6.85;;
48613;SDS011;34408;51.426;5.444;2022-11-20T08:58:24;9.85;;;7.45;;
48613;SDS011;34408;51.426;5.444;2022-11-20T09:00:52;12.10;;;7.60;;
48613;SDS011;34408;51.426;5.444;2022-11-20T09:03:20;12.82;;;7.70;;
48613;SDS011;34408;51.426;5.444;2022-11-20T09:05:48;12.88;;;8.65;;
48613;SDS011;34408;51.426;5.444;2022-11-20T09:08:16;10.77;;;7.32;;
48613;SDS011;34408;51.426;5.444;2022-11-20T09:10:45;14.18;;;8.45;;
48613;SDS011;34408;51.426;5.444;2022-11-20T09:13:18;11.82;;;7.20;;
48613;SDS011;34408;51.426;5.444;2022-11-20T09:15:46;13.38;;;7.82;;
48613;SDS011;34408;51.426;5.444;2022-11-20T09:18:14;14.13;;;9.93;;
48613;SDS011;34408;51.426;5.444;2022-11-20T09:20:42;14.32;;;9.27;;
48613;SDS011;34408;51.426;5.444;2022-11-20T09:23:09;17.90;;;9.63;;
48613;SDS011;34408;51.426;5.444;2022-11-20T09:25:37;14.88;;;8.98;;
48613;SDS011;34408;51.426;5.444;2022-11-20T09:28:06;16.73;;;9.43;;
48613;SDS011;34408;51.426;5.444;2022-11-20T09:30:34;17.40;;;10.07;;
48613;SDS011;34408;51.426;5.444;2022-11-20T09:33:03;28.33;;;11.05;;
48613;SDS011;34408;51.426;5.444;2022-11-20T09:35:31;19.60;;;10.93;;
48613;SDS011;34408;51.426;5.444;2022-11-20T09:38:03;17.00;;;9.80;;
48613;SDS011;34408;51.426;5.444;2022-11-20T09:40:32;21.08;;;9.85;;
48613;SDS011;34408;51.426;5.444;2022-11-20T09:43:03;23.83;;;12.38;;
48613;SDS011;34408;51.426;5.444;2022-11-20T09:45:44;18.95;;;10.90;;
48613;SDS011;34408;51.426;5.444;2022-11-20T09:48:38;20.45;;;11.30;;
48613;SDS011;34408;51.426;5.444;2022-11-20T09:51:18;19.88;;;11.70;;
48613;SDS011;34408;51.426;5.444;2022-11-20T09:53:58;21.00;;;12.13;;
48613;SDS011;34408;51.426;5.444;2022-11-20T09:56:37;21.27;;;11.93;;
48613;SDS011;34408;51.426;5.444;2022-11-20T09:59:18;20.55;;;12.60;;
48613;SDS011;34408;51.426;5.444;2022-11-20T10:01:54;24.40;;;12.32;;
48613;SDS011;34408;51.426;5.444;2022-11-20T10:04:23;25.42;;;12.30;;
48613;SDS011;34408;51.426;5.444;2022-11-20T10:06:52;22.38;;;12.85;;
48613;SDS011;34408;51.426;5.444;2022-11-20T10:09:50;23.27;;;12.80;;
48613;SDS011;34408;51.426;5.444;2022-11-20T10:12:21;25.75;;;13.15;;
48613;SDS011;34408;51.426;5.444;2022-11-20T10:15:03;26.48;;;13.40;;
48613;SDS011;34408;51.426;5.444;2022-11-20T10:17:45;23.80;;;12.95;;
48613;SDS011;34408;51.426;5.444;2022-11-20T10:20:23;23.77;;;13.07;;
48613;SDS011;34408;51.426;5.444;2022-11-20T10:23:02;26.47;;;14.10;;
48613;SDS011;34408;51.426;5.444;2022-11-20T10:25:51;21.02;;;12.38;;
48613;SDS011;34408;51.426;5.444;2022-11-20T10:28:30;26.10;;;13.40;;
48613;SDS011;34408;51.426;5.444;2022-11-20T10:31:27;19.98;;;12.30;;
48613;SDS011;34408;51.426;5.444;2022-11-20T10:33:59;23.15;;;14.40;;
48613;SDS011;34408;51.426;5.444;2022-11-20T10:36:38;24.90;;;13.95;;
48613;SDS011;34408;51.426;5.444;2022-11-20T10:39:14;25.77;;;13.52;;
48613;SDS011;34408;51.426;5.444;2022-11-20T10:41:47;22.45;;;14.00;;
48613;SDS011;34408;51.426;5.444;2022-11-20T10:44:19;25.95;;;15.05;;
48613;SDS011;34408;51.426;5.444;2022-11-20T10:47:11;21.90;;;12.93;;
48613;SDS011;34408;51.426;5.444;2022-11-20T10:49:41;22.00;;;14.43;;
48613;SDS011;34408;51.426;5.444;2022-11-20T10:52:11;22.25;;;12.68;;
48613;SDS011;34408;51.426;5.444;2022-11-20T10:54:47;21.02;;;13.15;;
48613;SDS011;34408;51.426;5.444;2022-11-20T10:57:25;24.13;;;13.07;;
48613;SDS011;34408;51.426;5.444;2022-11-20T11:00:04;21.17;;;12.57;;
48613;SDS011;34408;51.426;5.444;2022-11-20T11:02:40;21.67;;;13.07;;
48613;SDS011;34408;51.426;5.444;2022-11-20T11:05:13;23.23;;;12.60;;
48613;SDS011;34408;51.426;5.444;2022-11-20T11:07:50;23.15;;;12.93;;
48613;SDS011;34408;51.426;5.444;2022-11-20T11:10:22;24.15;;;13.77;;
48613;SDS011;34408;51.426;5.444;2022-11-20T11:12:54;24.13;;;13.88;;
48613;SDS011;34408;51.426;5.444;2022-11-20T11:15:26;27.30;;;13.90;;
48613;SDS011;34408;51.426;5.444;2022-11-20T11:17:56;23.02;;;12.82;;
48613;SDS011;34408;51.426;5.444;2022-11-20T11:20:25;22.73;;;13.55;;
48613;SDS011;34408;51.426;5.444;2022-11-20T11:22:54;22.92;;;13.35;;
48613;SDS011;34408;51.426;5.444;2022-11-20T11:25:27;21.98;;;13.63;;
48613;SDS011;34408;51.426;5.444;2022-11-20T11:27:58;23.20;;;13.27;;
48613;SDS011;34408;51.426;5.444;2022-11-20T11:30:28;21.60;;;12.82;;
48613;SDS011;34408;51.426;5.444;2022-11-20T11:33:06;25.25;;;13.23;;
48613;SDS011;34408;51.426;5.444;2022-11-20T11:35:38;27.60;;;13.45;;
48613;SDS011;34408;51.426;5.444;2022-11-20T11:38:17;27.73;;;13.18;;
48613;SDS011;34408;51.426;5.444;2022-11-20T11:40:49;25.02;;;13.65;;
48613;SDS011;34408;51.426;5.444;2022-11-20T11:43:21;22.67;;;13.35;;
48613;SDS011;34408;51.426;5.444;2022-11-20T11:46:14;21.58;;;12.38;;
48613;SDS011;34408;51.426;5.444;2022-11-20T11:48:57;22.40;;;12.88;;
48613;SDS011;34408;51.426;5.444;2022-11-20T11:51:28;22.10;;;12.73;;
48613;SDS011;34408;51.426;5.444;2022-11-20T11:54:01;21.88;;;12.50;;
48613;SDS011;34408;51.426;5.444;2022-11-20T11:56:38;23.60;;;13.75;;
48613;SDS011;34408;51.426;5.444;2022-11-20T11:59:06;21.50;;;12.90;;
48613;SDS011;34408;51.426;5.444;2022-11-20T12:01:43;22.38;;;12.75;;
48613;SDS011;34408;51.426;5.444;2022-11-20T12:04:19;22.13;;;13.65;;
48613;SDS011;34408;51.426;5.444;2022-11-20T12:06:53;27.25;;;14.93;;
48613;SDS011;34408;51.426;5.444;2022-11-20T12:09:49;22.70;;;13.30;;
48613;SDS011;34408;51.426;5.444;2022-11-20T12:12:22;22.63;;;13.52;;
48613;SDS011;34408;51.426;5.444;2022-11-20T12:14:54;24.58;;;13.07;;
48613;SDS011;34408;51.426;5.444;2022-11-20T12:17:23;22.77;;;12.80;;
48613;SDS011;34408;51.426;5.444;2022-11-20T12:19:52;21.52;;;12.75;;
48613;SDS011;34408;51.426;5.444;2022-11-20T12:22:22;24.75;;;13.55;;
48613;SDS011;34408;51.426;5.444;2022-11-20T12:24:58;22.58;;;12.57;;
48613;SDS011;34408;51.426;5.444;2022-11-20T12:27:37;24.50;;;13.18;;
48613;SDS011;34408;51.426;5.444;2022-11-20T12:30:24;20.40;;;11.90;;
48613;SDS011;34408;51.426;5.444;2022-11-20T12:32:59;26.45;;;13.95;;
48613;SDS011;34408;51.426;5.444;2022-11-20T12:35:42;23.25;;;13.30;;
48613;SDS011;34408;51.426;5.444;2022-11-20T12:38:29;24.77;;;13.63;;
48613;SDS011;34408;51.426;5.444;2022-11-20T12:41:19;25.13;;;12.93;;
48613;SDS011;34408;51.426;5.444;2022-11-20T12:44:16;24.73;;;13.23;;
48613;SDS011;34408;51.426;5.444;2022-11-20T12:47:14;23.77;;;12.98;;
48613;SDS011;34408;51.426;5.444;2022-11-20T12:49:52;19.92;;;12.45;;
48613;SDS011;34408;51.426;5.444;2022-11-20T12:52:34;21.48;;;12.77;;
48613;SDS011;34408;51.426;5.444;2022-11-20T12:55:09;27.33;;;14.15;;
48613;SDS011;34408;51.426;5.444;2022-11-20T12:57:45;24.27;;;13.85;;
48613;SDS011;34408;51.426;5.444;2022-11-20T13:00:17;23.30;;;13.40;;
48613;SDS011;34408;51.426;5.444;2022-11-20T13:05:53;23.27;;;12.90;;
48613;SDS011;34408;51.426;5.444;2022-11-20T13:08:29;23.53;;;13.53;;
48613;SDS011;34408;51.426;5.444;2022-11-20T13:11:01;35.55;;;14.00;;
48613;SDS011;34408;51.426;5.444;2022-11-20T13:13:40;22.60;;;12.93;;
48613;SDS011;34408;51.426;5.444;2022-11-20T13:16:17;27.23;;;13.48;;
48613;SDS011;34408;51.426;5.444;2022-11-20T13:18:51;25.08;;;14.05;;
48613;SDS011;34408;51.426;5.444;2022-11-20T13:21:20;29.25;;;13.27;;
48613;SDS011;34408;51.426;5.444;2022-11-20T13:23:51;23.95;;;13.57;;
48613;SDS011;34408;51.426;5.444;2022-11-20T13:26:19;27.00;;;13.52;;
48613;SDS011;34408;51.426;5.444;2022-11-20T13:28:59;26.60;;;13.43;;
48613;SDS011;34408;51.426;5.444;2022-11-20T13:31:31;24.23;;;12.93;;
48613;SDS011;34408;51.426;5.444;2022-11-20T13:34:00;24.27;;;13.32;;
48613;SDS011;34408;51.426;5.444;2022-11-20T13:36:30;26.38;;;14.60;;
48613;SDS011;34408;51.426;5.444;2022-11-20T13:39:02;24.50;;;13.20;;
48613;SDS011;34408;51.426;5.444;2022-11-20T13:41:31;21.77;;;13.25;;
48613;SDS011;34408;51.426;5.444;2022-11-20T13:44:08;24.92;;;14.23;;
48613;SDS011;34408;51.426;5.444;2022-11-20T13:46:41;23.38;;;13.20;;
48613;SDS011;34408;51.426;5.444;2022-11-20T13:49:14;24.17;;;13.30;;
48613;SDS011;34408;51.426;5.444;2022-11-20T13:51:46;22.02;;;12.10;;
48613;SDS011;34408;51.426;5.444;2022-11-20T13:57:34;25.27;;;13.75;;
48613;SDS011;34408;51.426;5.444;2022-11-20T14:00:16;23.98;;;14.13;;
48613;SDS011;34408;51.426;5.444;2022-11-20T14:02:48;25.20;;;12.57;;
48613;SDS011;34408;51.426;5.444;2022-11-20T14:05:26;25.40;;;13.20;;
48613;SDS011;34408;51.426;5.444;2022-11-20T14:07:55;24.20;;;12.63;;
48613;SDS011;34408;51.426;5.444;2022-11-20T14:10:26;26.95;;;13.25;;
48613;SDS011;34408;51.426;5.444;2022-11-20T14:12:57;20.67;;;11.82;;
48613;SDS011;34408;51.426;5.444;2022-11-20T14:15:27;24.08;;;13.27;;
48613;SDS011;34408;51.426;5.444;2022-11-20T14:17:56;21.63;;;12.82;;
48613;SDS011;34408;51.426;5.444;2022-11-20T14:20:25;21.95;;;13.20;;
48613;SDS011;34408;51.426;5.444;2022-11-20T14:22:57;22.35;;;12.75;;
48613;SDS011;34408;51.426;5.444;2022-11-20T14:25:26;22.75;;;13.57;;
48613;SDS011;34408;51.426;5.444;2022-11-20T14:27:54;24.85;;;13.68;;
48613;SDS011;34408;51.426;5.444;2022-11-20T14:30:25;22.58;;;12.73;;
48613;SDS011;34408;51.426;5.444;2022-11-20T14:32:55;25.08;;;13.65;;
48613;SDS011;34408;51.426;5.444;2022-11-20T14:35:29;22.38;;;12.85;;
48613;SDS011;34408;51.426;5.444;2022-11-20T14:37:58;26.98;;;12.55;;
48613;SDS011;34408;51.426;5.444;2022-11-20T14:40:29;25.38;;;13.75;;
48613;SDS011;34408;51.426;5.444;2022-11-20T14:42:59;24.10;;;13.00;;
48613;SDS011;34408;51.426;5.444;2022-11-20T14:45:26;23.48;;;13.13;;
48613;SDS011;34408;51.426;5.444;2022-11-20T14:47:55;22.15;;;12.15;;
48613;SDS011;34408;51.426;5.444;2022-11-20T14:50:27;21.48;;;12.32;;
48613;SDS011;34408;51.426;5.444;2022-11-20T14:52:56;25.67;;;14.32;;
48613;SDS011;34408;51.426;5.444;2022-11-20T14:55:26;23.25;;;13.35;;
48613;SDS011;34408;51.426;5.444;2022-11-20T14:57:57;24.42;;;13.85;;
48613;SDS011;34408;51.426;5.444;2022-11-20T15:00:27;22.75;;;13.05;;
48613;SDS011;34408;51.426;5.444;2022-11-20T15:02:55;22.55;;;12.98;;